createdAt,value
2023-12-02T00:00:36.630Z,0.50
2023-12-02T00:03:03.610Z,0.40
2023-12-02T00:05:30.445Z,0.30
2023-12-02T00:07:57.351Z,0.40
2023-12-02T00:10:24.203Z,0.40
2023-12-02T00:12:51.180Z,0.40
2023-12-02T00:15:18.042Z,0.40
2023-12-02T00:17:45.149Z,0.40
2023-12-02T00:20:12.523Z,0.30
2023-12-02T00:22:39.421Z,0.30
2023-12-02T00:25:06.466Z,0.30
2023-12-02T00:27:33.275Z,0.30
2023-12-02T00:30:00.563Z,0.30
2023-12-02T00:32:29.579Z,0.30
2023-12-02T00:34:58.457Z,0.20
2023-12-02T00:37:25.736Z,0.20
2023-12-02T00:39:52.640Z,0.20
2023-12-02T00:42:19.496Z,0.30
2023-12-02T00:44:46.293Z,0.20
2023-12-02T00:47:13.194Z,0.20
2023-12-02T00:49:40.145Z,0.20
2023-12-02T00:52:07.001Z,0.20
2023-12-02T00:54:36.195Z,0.20
2023-12-02T00:57:03.714Z,0.20
2023-12-02T00:59:30.717Z,0.10
2023-12-02T01:01:57.515Z,0.10
2023-12-02T01:04:24.434Z,0.10
2023-12-02T01:06:51.800Z,0.10
2023-12-02T01:09:18.765Z,0.00
2023-12-02T01:11:45.855Z,0.00
2023-12-02T01:14:12.684Z,0.00
2023-12-02T01:16:39.540Z,0.00
2023-12-02T01:19:06.397Z,0.10
2023-12-02T01:21:33.298Z,0.10
2023-12-02T01:24:00.323Z,0.00
2023-12-02T01:26:27.196Z,0.00
2023-12-02T01:28:54.115Z,-0.10
2023-12-02T01:31:21.084Z,-0.10
2023-12-02T01:33:47.986Z,-0.10
2023-12-02T01:36:15.196Z,-0.10
2023-12-02T01:38:42.107Z,-0.10
2023-12-02T01:41:09.972Z,-0.10
2023-12-02T01:43:38.964Z,-0.10
2023-12-02T01:46:06.616Z,-0.10
2023-12-02T01:48:35.881Z,-0.10
2023-12-02T01:51:04.217Z,-0.20
2023-12-02T01:53:31.316Z,-0.20
2023-12-02T01:55:58.261Z,-0.20
2023-12-02T01:58:25.420Z,-0.30
2023-12-02T02:00:52.297Z,-0.30
2023-12-02T02:03:19.133Z,-0.30
2023-12-02T02:05:46.246Z,-0.30
2023-12-02T02:08:13.172Z,-0.20
2023-12-02T02:10:39.960Z,-0.30
2023-12-02T02:13:07.074Z,-0.20
2023-12-02T02:15:33.902Z,-0.30
2023-12-02T02:18:00.862Z,-0.30
2023-12-02T02:20:28.075Z,-0.30
2023-12-02T02:22:55.005Z,-0.30
2023-12-02T02:25:22.031Z,-0.40
2023-12-02T02:27:48.797Z,-0.50
2023-12-02T02:30:16.008Z,-0.60
2023-12-02T02:32:42.924Z,-0.60
2023-12-02T02:35:10.059Z,-0.60
2023-12-02T02:37:36.880Z,-0.70
2023-12-02T02:40:04.014Z,-0.70
2023-12-02T02:42:30.890Z,-0.70
2023-12-02T02:44:57.981Z,-0.80
2023-12-02T02:47:24.763Z,-0.80
2023-12-02T02:49:51.495Z,-0.80
2023-12-02T02:52:18.897Z,-0.80
2023-12-02T02:54:45.694Z,-0.90
2023-12-02T02:57:12.636Z,-0.90
2023-12-02T02:59:39.426Z,-0.90
2023-12-02T03:02:06.261Z,-0.90
2023-12-02T03:04:33.445Z,-0.90
2023-12-02T03:07:00.382Z,-0.90
2023-12-02T03:09:27.344Z,-1.00
2023-12-02T03:11:54.370Z,-0.90
2023-12-02T03:14:21.244Z,-1.00
2023-12-02T03:16:48.156Z,-1.00
2023-12-02T03:19:15.647Z,-1.00
2023-12-02T03:21:42.422Z,-0.90
2023-12-02T03:24:09.426Z,-1.00
2023-12-02T03:26:37.723Z,-1.00
2023-12-02T03:29:07.710Z,-1.00
2023-12-02T03:31:34.955Z,-1.00
2023-12-02T03:34:01.882Z,-1.00
2023-12-02T03:36:28.963Z,-1.00
2023-12-02T03:38:55.851Z,-1.00
2023-12-02T03:41:22.774Z,-1.10
2023-12-02T03:43:55.569Z,-1.10
2023-12-02T03:46:29.542Z,-1.10
2023-12-02T03:48:57.180Z,-1.10
2023-12-02T03:51:24.732Z,-1.10
2023-12-02T03:53:51.638Z,-1.10
2023-12-02T03:56:18.536Z,-1.00
2023-12-02T03:58:46.513Z,-1.20
2023-12-02T04:01:13.757Z,-1.20
2023-12-02T04:03:41.014Z,-1.30
2023-12-02T04:06:10.059Z,-1.30
2023-12-02T04:08:36.916Z,-1.30
2023-12-02T04:11:04.401Z,-1.30
2023-12-02T04:13:31.870Z,-1.30
2023-12-02T04:15:58.697Z,-1.30
2023-12-02T04:18:25.600Z,-1.30
2023-12-02T04:20:52.474Z,-1.40
2023-12-02T04:23:19.483Z,-1.40
2023-12-02T04:25:46.277Z,-1.40
2023-12-02T04:28:13.772Z,-1.40
2023-12-02T04:30:40.612Z,-1.40
2023-12-02T04:33:07.816Z,-1.40
2023-12-02T04:35:36.257Z,-1.40
2023-12-02T04:38:05.726Z,-1.40
2023-12-02T04:40:33.687Z,-1.40
2023-12-02T04:43:00.524Z,-1.40
2023-12-02T04:45:30.051Z,-1.50
2023-12-02T04:47:58.886Z,-1.40
2023-12-02T04:50:25.812Z,-1.40
2023-12-02T04:52:52.738Z,-1.40
2023-12-02T04:55:19.546Z,-1.40
2023-12-02T04:57:46.906Z,-1.40
2023-12-02T05:00:18.315Z,-1.40
2023-12-02T05:02:45.459Z,-1.40
2023-12-02T05:05:13.641Z,-1.40
2023-12-02T05:07:40.889Z,-1.40
2023-12-02T05:10:07.974Z,-1.40
2023-12-02T05:12:34.888Z,-1.40
2023-12-02T05:15:02.264Z,-1.40
2023-12-02T05:17:29.242Z,-1.40
2023-12-02T05:19:57.273Z,-1.40
2023-12-02T05:22:24.977Z,-1.40
2023-12-02T05:24:51.720Z,-1.40
2023-12-02T05:27:18.530Z,-1.50
2023-12-02T05:29:45.900Z,-1.50
2023-12-02T05:32:12.967Z,-1.50
2023-12-02T05:34:40.002Z,-1.50
2023-12-02T05:37:07.807Z,-1.50
2023-12-02T05:39:36.411Z,-1.50
2023-12-02T05:42:03.491Z,-1.40
2023-12-02T05:44:30.378Z,-1.40
2023-12-02T05:46:57.132Z,-1.40
2023-12-02T05:49:23.970Z,-1.40
2023-12-02T05:51:50.849Z,-1.40
2023-12-02T05:54:17.743Z,-1.40
2023-12-02T05:56:44.554Z,-1.50
2023-12-02T05:59:11.942Z,-1.50
2023-12-02T06:01:38.715Z,-1.50
2023-12-02T06:04:05.696Z,-1.50
2023-12-02T06:06:32.653Z,-1.40
2023-12-02T06:08:59.593Z,-1.40
2023-12-02T06:11:26.367Z,-1.40
2023-12-02T06:13:53.397Z,-1.50
2023-12-02T06:16:20.309Z,-1.40
2023-12-02T06:18:47.242Z,-1.40
2023-12-02T06:21:14.223Z,-1.50
2023-12-02T06:23:41.183Z,-1.40
2023-12-02T06:26:08.321Z,-1.50
2023-12-02T06:28:35.131Z,-1.50
2023-12-02T06:31:01.880Z,-1.50
2023-12-02T06:33:28.748Z,-1.50
2023-12-02T06:35:55.701Z,-1.50
2023-12-02T06:38:23.214Z,-1.50
2023-12-02T06:40:50.185Z,-1.50
2023-12-02T06:43:17.463Z,-1.50
2023-12-02T06:45:44.287Z,-1.50
2023-12-02T06:48:11.216Z,-1.50
2023-12-02T06:50:38.544Z,-1.50
2023-12-02T06:53:05.624Z,-1.50
2023-12-02T06:55:32.935Z,-1.50
2023-12-02T06:58:00.391Z,-1.50
2023-12-02T07:00:27.355Z,-1.50
2023-12-02T07:02:54.370Z,-1.50
2023-12-02T07:05:21.355Z,-1.50
2023-12-02T07:07:48.389Z,-1.50
2023-12-02T07:10:15.652Z,-1.40
2023-12-02T07:12:42.736Z,-1.30
2023-12-02T07:15:09.966Z,-1.40
2023-12-02T07:17:37.149Z,-1.40
2023-12-02T07:20:04.447Z,-1.40
2023-12-02T07:22:31.284Z,-1.40
2023-12-02T07:24:58.138Z,-1.40
2023-12-02T07:27:28.197Z,-1.40
2023-12-02T07:32:26.915Z,-1.30
2023-12-02T07:34:53.828Z,-1.40
2023-12-02T07:37:20.681Z,-1.40
2023-12-02T07:39:47.657Z,-1.30
2023-12-02T07:42:14.690Z,-1.40
2023-12-02T07:44:41.540Z,-1.30
2023-12-02T07:47:08.440Z,-1.30
2023-12-02T07:49:35.904Z,-1.30
2023-12-02T07:52:02.984Z,-1.30
2023-12-02T07:54:29.838Z,-1.40
2023-12-02T07:56:56.550Z,-1.30
2023-12-02T07:59:23.876Z,-1.30
2023-12-02T08:01:51.370Z,-1.30
2023-12-02T08:04:18.328Z,-1.20
2023-12-02T08:06:45.174Z,-1.20
2023-12-02T08:09:16.243Z,-1.20
2023-12-02T08:11:43.363Z,-1.10
2023-12-02T08:14:10.336Z,-1.20
2023-12-02T08:16:37.201Z,-1.10
2023-12-02T08:19:04.079Z,-1.10
2023-12-02T08:21:31.173Z,-1.10
2023-12-02T08:23:58.126Z,-1.10
2023-12-02T08:26:26.284Z,-1.00
2023-12-02T08:28:53.088Z,-1.00
2023-12-02T08:31:20.399Z,-1.10
2023-12-02T08:33:47.411Z,-1.00
2023-12-02T08:36:14.256Z,-1.00
2023-12-02T08:38:53.499Z,-1.00
2023-12-02T08:41:20.420Z,-1.00
2023-12-02T08:43:47.223Z,-1.10
2023-12-02T08:46:20.681Z,-1.00
2023-12-02T08:48:47.948Z,-1.10
2023-12-02T08:51:15.242Z,-1.10
2023-12-02T08:53:41.992Z,-1.00
2023-12-02T08:56:09.879Z,-1.00
2023-12-02T08:58:36.995Z,-1.10
2023-12-02T09:01:04.990Z,-1.10
2023-12-02T09:03:31.804Z,-1.10
2023-12-02T09:05:58.680Z,-1.10
2023-12-02T09:08:25.623Z,-1.10
2023-12-02T09:10:52.485Z,-1.10
2023-12-02T09:13:41.020Z,-1.10
2023-12-02T09:16:13.205Z,-1.10
2023-12-02T09:18:39.987Z,-1.10
2023-12-02T09:21:30.941Z,-1.10
2023-12-02T09:24:02.161Z,-1.00
2023-12-02T09:26:37.672Z,-1.10
2023-12-02T09:29:04.531Z,-1.00
2023-12-02T09:31:32.783Z,-1.10
2023-12-02T09:34:04.503Z,-1.00
2023-12-02T09:36:43.320Z,-1.00
2023-12-02T09:41:52.898Z,-1.00
2023-12-02T09:44:49.476Z,-1.00
2023-12-02T09:47:21.687Z,-0.90
2023-12-02T09:50:07.474Z,-0.90
2023-12-02T09:52:56.247Z,-0.90
2023-12-02T09:55:45.153Z,-0.90
2023-12-02T09:58:20.822Z,-0.90
2023-12-02T10:01:05.665Z,-0.90
2023-12-02T10:03:48.409Z,-1.00
2023-12-02T10:06:18.242Z,-0.90
2023-12-02T10:09:10.541Z,-0.90
2023-12-02T10:11:57.504Z,-0.90
2023-12-02T10:14:28.420Z,-0.90
2023-12-02T10:16:55.727Z,-0.80
2023-12-02T10:19:31.519Z,-0.80
2023-12-02T10:22:03.902Z,-0.80
2023-12-02T10:24:41.166Z,-0.80
2023-12-02T10:27:15.776Z,-0.90
2023-12-02T10:30:01.642Z,-0.90
2023-12-02T10:32:44.741Z,-1.00
2023-12-02T10:35:18.581Z,-1.10
2023-12-02T10:37:45.816Z,-1.10
2023-12-02T10:40:15.368Z,-1.10
2023-12-02T10:45:49.187Z,-0.90
2023-12-02T10:48:20.024Z,-1.00
2023-12-02T10:50:49.157Z,-0.90
2023-12-02T10:53:20.810Z,-1.00
2023-12-02T10:55:52.241Z,-1.10
2023-12-02T10:58:20.869Z,-1.00
2023-12-02T11:00:57.352Z,-1.00
2023-12-02T11:03:38.720Z,-0.90
2023-12-02T11:06:10.317Z,-0.80
2023-12-02T11:08:47.229Z,-0.80
2023-12-02T11:11:47.196Z,-0.90
2023-12-02T11:14:18.407Z,-0.90
2023-12-02T11:17:11.124Z,-1.00
2023-12-02T11:19:48.789Z,-1.00
2023-12-02T11:22:59.589Z,-0.90
2023-12-02T11:25:41.624Z,-0.80
2023-12-02T11:28:37.859Z,-0.70
2023-12-02T11:31:37.859Z,-0.70
2023-12-02T11:34:30.509Z,-0.70
2023-12-02T11:37:29.185Z,-0.70
2023-12-02T11:40:20.741Z,-0.70
2023-12-02T11:43:16.489Z,-0.80
2023-12-02T11:45:54.757Z,-0.90
2023-12-02T11:48:27.456Z,-0.90
2023-12-02T11:51:25.438Z,-0.90
2023-12-02T11:54:08.754Z,-0.90
2023-12-02T11:56:36.512Z,-0.90
2023-12-02T11:59:16.907Z,-0.90
2023-12-02T12:02:04.758Z,-0.90
2023-12-02T12:04:37.321Z,-1.00
2023-12-02T12:07:09.975Z,-1.00
2023-12-02T12:09:39.501Z,-1.00
2023-12-02T12:12:08.569Z,-1.00
2023-12-02T12:14:38.781Z,-1.00
2023-12-02T12:17:05.993Z,-1.10
2023-12-02T12:19:33.023Z,-1.10
2023-12-02T12:22:00.006Z,-1.10
2023-12-02T12:24:27.958Z,-1.20
2023-12-02T12:26:54.788Z,-1.20
2023-12-02T12:29:21.641Z,-1.30
2023-12-02T12:31:48.469Z,-1.30
2023-12-02T12:34:16.257Z,-1.40
2023-12-02T12:36:44.806Z,-1.40
2023-12-02T12:39:14.037Z,-1.40
2023-12-02T12:41:40.997Z,-1.40
2023-12-02T12:44:08.788Z,-1.50
2023-12-02T12:46:35.775Z,-1.40
2023-12-02T12:49:08.273Z,-1.40
2023-12-02T12:51:38.548Z,-1.40
2023-12-02T12:54:07.126Z,-1.40
2023-12-02T12:56:43.134Z,-1.40
2023-12-02T12:59:13.723Z,-1.30
2023-12-02T13:02:15.266Z,-1.30
2023-12-02T13:04:42.071Z,-1.30
2023-12-02T13:07:13.251Z,-1.30
2023-12-02T13:09:43.185Z,-1.30
2023-12-02T13:12:18.061Z,-1.40
2023-12-02T13:14:50.881Z,-1.30
2023-12-02T13:17:21.575Z,-1.30
2023-12-02T13:19:49.253Z,-1.30
2023-12-02T13:22:17.979Z,-1.30
2023-12-02T13:25:12.642Z,-1.30
2023-12-02T13:27:50.771Z,-1.30
2023-12-02T13:30:17.743Z,-1.30
2023-12-02T13:32:47.757Z,-1.30
2023-12-02T13:35:16.609Z,-1.40
2023-12-02T13:38:24.530Z,-1.40
2023-12-02T13:41:12.359Z,-1.40
2023-12-02T13:43:57.398Z,-1.40
2023-12-02T13:47:08.941Z,-1.40
2023-12-02T13:49:40.591Z,-1.40
2023-12-02T13:52:18.285Z,-1.40
2023-12-02T13:55:16.058Z,-1.40
2023-12-02T13:58:04.729Z,-1.40
2023-12-02T14:01:01.172Z,-1.40
2023-12-02T14:03:47.664Z,-1.40
2023-12-02T14:06:20.911Z,-1.50
2023-12-02T14:08:56.811Z,-1.60
2023-12-02T14:11:53.744Z,-1.60
2023-12-02T14:15:14.373Z,-1.60
2023-12-02T14:18:29.827Z,-1.70
2023-12-02T14:21:08.891Z,-1.60
2023-12-02T14:23:51.077Z,-1.60
2023-12-02T14:26:29.972Z,-1.60
2023-12-02T14:29:39.067Z,-1.60
2023-12-02T14:32:36.547Z,-1.60
2023-12-02T14:35:21.911Z,-1.60
2023-12-02T14:38:10.812Z,-1.70
2023-12-02T14:40:56.357Z,-1.70
2023-12-02T14:43:50.197Z,-1.70
2023-12-02T14:46:17.048Z,-1.70
2023-12-02T14:48:44.904Z,-1.70
2023-12-02T14:51:12.942Z,-1.80
2023-12-02T14:53:42.946Z,-1.70
2023-12-02T14:56:43.765Z,-1.80
2023-12-02T15:00:19.871Z,-1.80
2023-12-02T15:02:53.012Z,-1.80
2023-12-02T15:05:21.633Z,-1.80
2023-12-02T15:07:54.720Z,-1.80
2023-12-02T15:10:29.865Z,-1.80
2023-12-02T15:13:05.756Z,-1.80
2023-12-02T15:15:35.908Z,-1.80
2023-12-02T15:18:08.528Z,-1.80
2023-12-02T15:20:35.801Z,-1.80
2023-12-02T15:23:17.623Z,-1.90
2023-12-02T15:25:46.323Z,-1.90
2023-12-02T15:28:15.975Z,-1.90
2023-12-02T15:30:43.026Z,-1.90
2023-12-02T15:33:16.886Z,-1.90
2023-12-02T15:35:47.299Z,-2.00
2023-12-02T15:38:14.162Z,-1.90
2023-12-02T15:40:40.981Z,-2.00
2023-12-02T15:43:09.173Z,-2.00
2023-12-02T15:45:36.305Z,-2.00
2023-12-02T15:48:03.214Z,-2.00
2023-12-02T15:50:31.029Z,-1.90
2023-12-02T15:52:57.909Z,-1.90
2023-12-02T15:55:24.872Z,-1.90
2023-12-02T15:57:51.715Z,-2.00
2023-12-02T16:00:18.654Z,-1.90
2023-12-02T16:02:48.693Z,-1.90
2023-12-02T16:05:15.798Z,-1.90
2023-12-02T16:07:43.384Z,-1.90
2023-12-02T16:10:14.201Z,-1.90
2023-12-02T16:12:46.461Z,-1.80
2023-12-02T16:15:13.571Z,-1.80
2023-12-02T16:17:41.520Z,-1.80
2023-12-02T16:20:11.901Z,-1.80
2023-12-02T16:22:39.157Z,-1.90
2023-12-02T16:25:09.604Z,-1.90
2023-12-02T16:27:37.528Z,-1.90
2023-12-02T16:30:04.887Z,-1.90
2023-12-02T16:32:31.886Z,-1.80
2023-12-02T16:34:58.862Z,-1.80
2023-12-02T16:37:25.848Z,-1.80
2023-12-02T16:39:52.928Z,-1.80
2023-12-02T16:42:19.804Z,-1.80
2023-12-02T16:44:46.527Z,-1.90
2023-12-02T16:47:42.129Z,-1.90
2023-12-02T16:50:17.457Z,-1.90
2023-12-02T16:52:55.996Z,-1.70
2023-12-02T16:55:28.894Z,-1.70
2023-12-02T16:57:57.245Z,-1.80
2023-12-02T17:00:50.659Z,-1.70
2023-12-02T17:03:37.868Z,-1.70
2023-12-02T17:06:10.572Z,-1.60
2023-12-02T17:08:39.097Z,-1.60
2023-12-02T17:11:14.950Z,-1.60
2023-12-02T17:14:07.015Z,-1.70
2023-12-02T17:16:34.180Z,-1.70
2023-12-02T17:19:16.697Z,-1.70
2023-12-02T17:22:02.963Z,-1.70
2023-12-02T17:24:42.221Z,-1.70
2023-12-02T17:27:31.835Z,-1.70
2023-12-02T17:29:58.699Z,-1.70
2023-12-02T17:32:25.402Z,-1.70
2023-12-02T17:34:52.106Z,-1.70
2023-12-02T17:37:19.017Z,-1.70
2023-12-02T17:39:46.040Z,-1.60
2023-12-02T17:42:15.901Z,-1.60
2023-12-02T17:44:43.007Z,-1.60
2023-12-02T17:47:09.873Z,-1.60
2023-12-02T17:49:37.661Z,-1.60
2023-12-02T17:52:05.953Z,-1.60
2023-12-02T17:54:32.787Z,-1.60
2023-12-02T17:56:59.503Z,-1.60
2023-12-02T17:59:26.355Z,-1.60
2023-12-02T18:01:53.216Z,-1.60
2023-12-02T18:04:20.021Z,-1.60
2023-12-02T18:06:47.382Z,-1.60
2023-12-02T18:09:14.740Z,-1.60
2023-12-02T18:11:41.577Z,-1.60
2023-12-02T18:14:08.374Z,-1.60
2023-12-02T18:16:35.137Z,-1.50
2023-12-02T18:19:02.003Z,-1.60
2023-12-02T18:21:32.281Z,-1.50
2023-12-02T18:23:59.233Z,-1.50
2023-12-02T18:26:26.112Z,-1.60
2023-12-02T18:28:52.984Z,-1.50
2023-12-02T18:31:19.729Z,-1.60
2023-12-02T18:33:46.740Z,-1.60
2023-12-02T18:36:13.657Z,-1.60
2023-12-02T18:38:40.396Z,-1.60
2023-12-02T18:41:09.006Z,-1.60
2023-12-02T18:43:35.721Z,-1.60
2023-12-02T18:46:03.200Z,-1.60
2023-12-02T18:48:30.081Z,-1.60
2023-12-02T18:50:56.796Z,-1.60
2023-12-02T18:53:25.365Z,-1.60
2023-12-02T18:55:52.647Z,-1.60
2023-12-02T18:58:20.943Z,-1.50
2023-12-02T19:00:47.733Z,-1.50
2023-12-02T19:03:14.767Z,-1.60
2023-12-02T19:05:41.572Z,-1.50
2023-12-02T19:08:08.302Z,-1.60
2023-12-02T19:10:35.654Z,-1.50
2023-12-02T19:13:02.373Z,-1.50
2023-12-02T19:15:29.452Z,-1.50
2023-12-02T19:17:56.424Z,-1.40
2023-12-02T19:20:23.513Z,-1.50
2023-12-02T19:22:50.225Z,-1.50
2023-12-02T19:25:17.135Z,-1.50
2023-12-02T19:27:46.892Z,-1.50
2023-12-02T19:30:14.495Z,-1.40
2023-12-02T19:32:41.319Z,-1.50
2023-12-02T19:35:08.746Z,-1.40
2023-12-02T19:37:35.523Z,-1.30
2023-12-02T19:40:02.352Z,-1.40
2023-12-02T19:42:29.367Z,-1.40
2023-12-02T19:44:56.647Z,-1.50
2023-12-02T19:47:23.376Z,-1.50
2023-12-02T19:49:50.273Z,-1.50
2023-12-02T19:52:20.395Z,-1.40
2023-12-02T19:54:47.736Z,-1.50
2023-12-02T19:57:14.457Z,-1.50
2023-12-02T19:59:41.310Z,-1.40
2023-12-02T20:02:08.617Z,-1.40
2023-12-02T20:04:35.752Z,-1.40
2023-12-02T20:07:02.619Z,-1.40
2023-12-02T20:09:29.349Z,-1.40
2023-12-02T20:11:56.142Z,-1.40
2023-12-02T20:14:23.201Z,-1.40
2023-12-02T20:16:51.575Z,-1.40
2023-12-02T20:19:18.334Z,-1.50
2023-12-02T20:21:45.093Z,-1.40
2023-12-02T20:24:12.020Z,-1.40
2023-12-02T20:26:39.338Z,-1.30
2023-12-02T20:29:06.562Z,-1.30
2023-12-02T20:31:33.311Z,-1.40
2023-12-02T20:34:00.142Z,-1.40
2023-12-02T20:36:27.077Z,-1.40
2023-12-02T20:38:53.899Z,-1.40
2023-12-02T20:41:21.141Z,-1.40
2023-12-02T20:43:48.504Z,-1.50
2023-12-02T20:46:15.264Z,-1.50
2023-12-02T20:48:43.239Z,-1.40
2023-12-02T20:51:10.739Z,-1.40
2023-12-02T20:53:37.836Z,-1.40
2023-12-02T20:56:05.073Z,-1.40
2023-12-02T20:58:32.240Z,-1.30
2023-12-02T21:00:59.140Z,-1.30
2023-12-02T21:03:26.060Z,-1.30
2023-12-02T21:05:52.930Z,-1.40
2023-12-02T21:08:20.006Z,-1.40
2023-12-02T21:10:46.965Z,-1.30
2023-12-02T21:13:13.777Z,-1.40
2023-12-02T21:15:43.613Z,-1.30
2023-12-02T21:18:14.942Z,-1.30
2023-12-02T21:20:41.962Z,-1.30
2023-12-02T21:23:09.358Z,-1.40
2023-12-02T21:25:36.715Z,-1.30
2023-12-02T21:28:05.120Z,-1.40
2023-12-02T21:30:38.158Z,-1.40
2023-12-02T21:33:16.267Z,-1.40
2023-12-02T21:35:57.476Z,-1.30
2023-12-02T21:38:46.231Z,-1.40
2023-12-02T21:41:17.204Z,-1.30
2023-12-02T21:43:49.146Z,-1.30
2023-12-02T21:46:24.027Z,-1.30
2023-12-02T21:49:16.211Z,-1.40
2023-12-02T21:51:47.597Z,-1.30
2023-12-02T21:54:18.647Z,-1.30
2023-12-02T21:56:52.887Z,-1.40
2023-12-02T21:59:23.652Z,-1.40
2023-12-02T22:01:52.718Z,-1.30
2023-12-02T22:04:21.180Z,-1.30
2023-12-02T22:06:52.009Z,-1.30
2023-12-02T22:09:28.176Z,-1.30
2023-12-02T22:11:57.191Z,-1.30
2023-12-02T22:14:25.903Z,-1.30
2023-12-02T22:17:05.438Z,-1.30
2023-12-02T22:19:35.997Z,-1.30
2023-12-02T22:22:07.281Z,-1.20
2023-12-02T22:24:40.783Z,-1.30
2023-12-02T22:27:11.905Z,-1.20
2023-12-02T22:29:43.647Z,-1.20
2023-12-02T22:32:24.843Z,-1.30
2023-12-02T22:34:51.925Z,-1.30
2023-12-02T22:37:19.440Z,-1.30
2023-12-02T22:39:46.230Z,-1.20
2023-12-02T22:42:13.662Z,-1.20
2023-12-02T22:44:40.465Z,-1.30
2023-12-02T22:47:11.727Z,-1.30
2023-12-02T22:49:40.124Z,-1.40
2023-12-02T22:52:11.085Z,-1.30
2023-12-02T22:54:41.059Z,-1.40
2023-12-02T22:57:13.468Z,-1.30
2023-12-02T22:59:40.941Z,-1.20
2023-12-02T23:02:12.659Z,-1.30
2023-12-02T23:04:44.272Z,-1.40
2023-12-02T23:07:17.556Z,-1.30
2023-12-02T23:09:55.550Z,-1.30
2023-12-02T23:12:36.585Z,-1.30
2023-12-02T23:15:37.937Z,-1.30
2023-12-02T23:18:10.998Z,-1.30
2023-12-02T23:20:38.848Z,-1.30
2023-12-02T23:23:05.709Z,-1.30
2023-12-02T23:25:32.682Z,-1.30
2023-12-02T23:28:02.063Z,-1.20
2023-12-02T23:30:29.200Z,-1.30
2023-12-02T23:32:56.532Z,-1.30
2023-12-02T23:35:25.751Z,-1.30
2023-12-02T23:37:54.327Z,-1.30
2023-12-02T23:40:29.836Z,-1.30
2023-12-02T23:42:58.244Z,-1.30
2023-12-02T23:45:25.335Z,-1.30
2023-12-02T23:47:52.950Z,-1.30
2023-12-02T23:50:20.932Z,-1.30
2023-12-02T23:52:48.845Z,-1.30
2023-12-02T23:55:16.132Z,-1.30
2023-12-02T23:57:44.406Z,-1.20
